Time;durP1;ratioP1;P1;durP2;ratioP2;P2;SDS_P1;SDS_P2;PMS_P1;PMS_P2;Temp;Humidity;BMP_temperature;BMP_pressure;BME280_temperature;BME280_humidity;BME280_pressure;Samples;Min_cycle;Max_cycle;Signal;HPM_P1;HPM_P2
2022/05/21 00:00:24;;;;;;;;;;;12.30;99.90;;;;;;5053983;28;39075;-57
2022/05/21 00:02:51;;;;;;;;;;;12.40;99.90;;;;;;5055148;28;37566;-58
2022/05/21 00:05:19;;;;;;;;;;;12.40;99.90;;;;;;5055582;28;36484;-57
2022/05/21 00:07:46;;;;;;;;;;;12.30;99.90;;;;;;5056458;28;36436;-57
2022/05/21 00:10:15;;;;;;;;;;;12.40;99.90;;;;;;5057271;28;38924;-57
2022/05/21 00:12:43;;;;;;;;;;;12.40;99.90;;;;;;5057597;28;39610;-57
2022/05/21 00:15:13;;;;;;;;;;;12.40;99.90;;;;;;5057468;28;35906;-57
2022/05/21 00:17:40;;;;;;;;;;;12.40;99.90;;;;;;5057984;28;38843;-57
2022/05/21 00:20:47;;;;;;;;;;;12.40;99.90;;;;;;5056963;28;39429;-56
2022/05/21 00:22:55;;;;;;;;;;;12.40;99.90;;;;;;5057899;28;37924;-57
2022/05/21 00:25:22;;;;;;;;;;;12.40;99.90;;;;;;5057888;28;37780;-57
2022/05/21 00:27:49;;;;;;;;;;;12.50;99.90;;;;;;5057915;28;38809;-56
2022/05/21 00:30:17;;;;;;;;;;;12.50;99.90;;;;;;5055622;28;38505;-57
2022/05/21 00:32:44;;;;;;;;;;;12.40;99.90;;;;;;5058099;28;37582;-56
2022/05/21 00:35:11;;;;;;;;;;;12.50;99.90;;;;;;5057706;28;36270;-57
2022/05/21 00:37:38;;;;;;;;;;;12.50;99.90;;;;;;5057925;28;39060;-57
2022/05/21 00:40:06;;;;;;;;;;;12.50;99.90;;;;;;5056551;28;38086;-57
2022/05/21 00:42:33;;;;;;;;;;;12.50;99.90;;;;;;5057970;28;37278;-57
2022/05/21 00:45:00;;;;;;;;;;;12.50;99.90;;;;;;5054783;28;35151;-57
2022/05/21 00:47:28;;;;;;;;;;;12.50;99.90;;;;;;5054956;28;37988;-45
2022/05/21 00:49:56;;;;;;;;;;;12.60;99.90;;;;;;5055749;28;39769;-46
2022/05/21 00:52:25;;;;;;;;;;;12.60;99.90;;;;;;5054174;28;39006;-46
2022/05/21 00:54:54;;;;;;;;;;;12.60;99.90;;;;;;5055074;28;37472;-49
2022/05/21 00:57:24;;;;;;;;;;;12.60;99.90;;;;;;5055493;28;38133;-48
2022/05/21 00:59:52;;;;;;;;;;;12.60;99.90;;;;;;5055754;28;39903;-47
2022/05/21 01:02:21;;;;;;;;;;;12.70;99.90;;;;;;5055644;28;37625;-49
2022/05/21 01:04:50;;;;;;;;;;;12.70;99.90;;;;;;5056895;28;35238;-48
2022/05/21 01:07:17;;;;;;;;;;;12.70;99.90;;;;;;5057766;28;36572;-49
2022/05/21 01:09:48;;;;;;;;;;;12.60;99.90;;;;;;5056626;28;37990;-48
2022/05/21 01:12:15;;;;;;;;;;;12.70;99.90;;;;;;5056392;28;38423;-48
2022/05/21 01:14:42;;;;;;;;;;;12.70;99.90;;;;;;5055354;28;36155;-45
2022/05/21 01:17:09;;;;;;;;;;;12.70;99.90;;;;;;5056146;28;39236;-46
2022/05/21 01:19:51;;;;;;;;;;;12.70;99.90;;;;;;5056595;28;39738;-49
2022/05/21 01:22:24;;;;;;;;;;;12.70;99.90;;;;;;5056680;28;37366;-45
2022/05/21 01:24:53;;;;;;;;;;;12.70;99.90;;;;;;5056770;28;34976;-46
2022/05/21 01:27:20;;;;;;;;;;;12.80;99.90;;;;;;5056790;28;36589;-47
2022/05/21 01:29:49;;;;;;;;;;;12.80;99.90;;;;;;5054237;28;38549;-45
2022/05/21 01:32:17;;;;;;;;;;;12.80;99.90;;;;;;5055772;28;37467;-48
2022/05/21 01:34:44;;;;;;;;;;;12.80;99.90;;;;;;5055981;28;36615;-49
2022/05/21 01:37:11;;;;;;;;;;;12.90;99.90;;;;;;5057317;28;35928;-45
2022/05/21 01:39:38;;;;;;;;;;;12.90;99.90;;;;;;5056208;28;38915;-47
2022/05/21 01:42:07;;;;;;;;;;;12.90;99.90;;;;;;5055169;28;38730;-49
2022/05/21 01:44:39;;;;;;;;;;;12.90;99.90;;;;;;5055859;28;36959;-48
2022/05/21 01:47:07;;;;;;;;;;;13.00;99.90;;;;;;5053008;28;37949;-48
2022/05/21 01:49:34;;;;;;;;;;;13.00;99.90;;;;;;5053723;28;39777;-48
2022/05/21 01:52:01;;;;;;;;;;;13.00;99.90;;;;;;5053362;28;37573;-49
2022/05/21 01:54:28;;;;;;;;;;;13.10;99.90;;;;;;5056864;28;36415;-47
2022/05/21 01:56:55;;;;;;;;;;;13.10;99.90;;;;;;5056586;28;36525;-47
2022/05/21 01:59:24;;;;;;;;;;;13.10;99.90;;;;;;5056132;28;38552;-46
2022/05/21 02:01:51;;;;;;;;;;;13.10;99.90;;;;;;5057743;28;38047;-49
2022/05/21 02:04:18;;;;;;;;;;;13.10;99.90;;;;;;5056674;28;35107;-48
2022/05/21 02:06:46;;;;;;;;;;;13.10;99.90;;;;;;5057988;28;37809;-47
2022/05/21 02:09:13;;;;;;;;;;;13.10;99.90;;;;;;5056634;28;38648;-46
2022/05/21 02:11:40;;;;;;;;;;;13.20;99.90;;;;;;5056385;28;36971;-45
2022/05/21 02:14:08;;;;;;;;;;;13.20;99.90;;;;;;5055893;28;36262;-47
2022/05/21 02:16:36;;;;;;;;;;;13.20;99.90;;;;;;5055647;28;37654;-48
2022/05/21 02:19:04;;;;;;;;;;;13.30;99.90;;;;;;5053617;28;38798;-45
2022/05/21 02:21:32;;;;;;;;;;;13.30;99.90;;;;;;5055448;28;36273;-57
2022/05/21 02:23:59;;;;;;;;;;;13.30;99.90;;;;;;5054701;28;35061;-57
2022/05/21 02:26:26;;;;;;;;;;;13.30;99.90;;;;;;5056622;28;37816;-57
2022/05/21 02:28:53;;;;;;;;;;;13.40;99.90;;;;;;5056999;28;36974;-57
2022/05/21 02:31:21;;;;;;;;;;;13.40;99.90;;;;;;5056927;28;38510;-57
2022/05/21 02:33:49;;;;;;;;;;;13.40;99.90;;;;;;5057459;28;35031;-56
2022/05/21 02:36:16;;;;;;;;;;;13.40;99.90;;;;;;5056361;28;36550;-57
2022/05/21 02:41:28;;;;;;;;;;;13.50;99.90;;;;;;5056442;28;38377;-56
2022/05/21 02:43:55;;;;;;;;;;;13.50;99.90;;;;;;5056834;28;37262;-57
2022/05/21 02:46:22;;;;;;;;;;;13.50;99.90;;;;;;5055981;28;35971;-57
2022/05/21 02:48:51;;;;;;;;;;;13.60;99.90;;;;;;5056338;28;39070;-57
2022/05/21 02:51:18;;;;;;;;;;;13.60;99.90;;;;;;5055213;28;38350;-57
2022/05/21 02:53:45;;;;;;;;;;;13.60;99.90;;;;;;5056037;28;36110;-45
2022/05/21 02:56:14;;;;;;;;;;;13.60;99.90;;;;;;5056855;28;38107;-48
2022/05/21 02:58:41;;;;;;;;;;;13.70;99.90;;;;;;5056105;28;42429;-46
2022/05/21 03:01:08;;;;;;;;;;;13.70;99.90;;;;;;5054210;28;37707;-48
2022/05/21 03:03:35;;;;;;;;;;;13.70;99.90;;;;;;5054818;28;36619;-48
2022/05/21 03:06:04;;;;;;;;;;;13.70;99.90;;;;;;5056460;28;38057;-45
2022/05/21 03:11:24;;;;;;;;;;;13.70;99.90;;;;;;5024205;28;38029;-47
2022/05/21 03:13:51;;;;;;;;;;;13.70;99.90;;;;;;5055791;28;36584;-48
2022/05/21 03:16:18;;;;;;;;;;;13.70;99.90;;;;;;5055749;28;39017;-46
2022/05/21 03:18:45;;;;;;;;;;;13.70;99.90;;;;;;5056189;28;38126;-48
2022/05/21 03:21:14;;;;;;;;;;;13.70;99.90;;;;;;5054895;28;39001;-48
2022/05/21 03:23:41;;;;;;;;;;;13.70;99.90;;;;;;5054300;28;39393;-46
2022/05/21 03:26:08;;;;;;;;;;;13.80;99.90;;;;;;5055035;28;38434;-48
2022/05/21 03:28:35;;;;;;;;;;;13.80;99.90;;;;;;5054801;28;37072;-45
2022/05/21 03:31:03;;;;;;;;;;;13.80;99.90;;;;;;5054445;28;39346;-47
2022/05/21 03:33:30;;;;;;;;;;;13.80;99.90;;;;;;5054497;28;37832;-46
2022/05/21 03:35:57;;;;;;;;;;;13.80;99.90;;;;;;5054587;28;38002;-46
2022/05/21 03:38:25;;;;;;;;;;;13.80;99.90;;;;;;5054640;28;37261;-45
2022/05/21 03:40:52;;;;;;;;;;;13.80;99.90;;;;;;5054517;28;36376;-47
2022/05/21 03:43:19;;;;;;;;;;;13.80;99.90;;;;;;5054135;28;36385;-50
2022/05/21 03:45:47;;;;;;;;;;;13.80;99.90;;;;;;5053392;28;36658;-48
2022/05/21 03:48:15;;;;;;;;;;;13.80;99.90;;;;;;5055325;28;38846;-47
2022/05/21 03:50:42;;;;;;;;;;;13.80;99.90;;;;;;5054443;28;37842;-45
2022/05/21 03:53:10;;;;;;;;;;;13.80;99.90;;;;;;5055297;28;35812;-47
2022/05/21 03:55:38;;;;;;;;;;;13.80;99.90;;;;;;5054761;28;36537;-47
2022/05/21 03:58:05;;;;;;;;;;;13.80;99.90;;;;;;5055512;28;36848;-48
2022/05/21 04:00:37;;;;;;;;;;;13.90;99.90;;;;;;5054379;28;37631;-49
2022/05/21 04:03:04;;;;;;;;;;;13.90;99.90;;;;;;5054099;28;37186;-48
2022/05/21 04:05:31;;;;;;;;;;;13.90;99.90;;;;;;5055825;28;36845;-47
2022/05/21 04:07:58;;;;;;;;;;;13.90;99.90;;;;;;5055468;28;38973;-48
2022/05/21 04:10:26;;;;;;;;;;;13.90;99.90;;;;;;5055241;28;37699;-47
2022/05/21 04:12:55;;;;;;;;;;;13.90;99.90;;;;;;5054007;28;35016;-44
2022/05/21 04:15:22;;;;;;;;;;;13.90;99.90;;;;;;5053382;28;39306;-45
2022/05/21 04:17:49;;;;;;;;;;;13.90;99.90;;;;;;5055815;28;38748;-44
2022/05/21 04:20:17;;;;;;;;;;;13.90;99.90;;;;;;5054119;28;36390;-45
2022/05/21 04:22:44;;;;;;;;;;;13.90;99.90;;;;;;5054378;28;36713;-46
2022/05/21 04:25:11;;;;;;;;;;;13.90;99.90;;;;;;5054349;28;38078;-45
2022/05/21 04:27:40;;;;;;;;;;;13.90;99.90;;;;;;5055035;28;37449;-46
2022/05/21 04:30:10;;;;;;;;;;;13.90;99.90;;;;;;5053952;28;36355;-45
2022/05/21 04:32:37;;;;;;;;;;;13.90;99.90;;;;;;5054199;28;38141;-45
2022/05/21 04:35:04;;;;;;;;;;;13.90;99.90;;;;;;5054113;28;36543;-45
2022/05/21 04:37:31;;;;;;;;;;;13.90;99.90;;;;;;5053711;28;37408;-45
2022/05/21 04:39:58;;;;;;;;;;;13.90;99.90;;;;;;5053697;28;38176;-47
2022/05/21 04:42:25;;;;;;;;;;;13.90;99.90;;;;;;5053660;28;37361;-45
2022/05/21 04:44:52;;;;;;;;;;;13.90;99.90;;;;;;5054604;28;38819;-46
2022/05/21 04:47:21;;;;;;;;;;;13.90;99.90;;;;;;5053894;28;38097;-45
2022/05/21 04:49:48;;;;;;;;;;;13.80;99.90;;;;;;5053466;28;37809;-45
2022/05/21 04:52:15;;;;;;;;;;;13.80;99.90;;;;;;5053313;28;38294;-47
2022/05/21 04:54:42;;;;;;;;;;;13.80;99.90;;;;;;5053893;28;36688;-45
2022/05/21 04:57:12;;;;;;;;;;;13.80;99.90;;;;;;5054389;28;38241;-50
2022/05/21 04:59:39;;;;;;;;;;;13.90;99.90;;;;;;5053025;28;36217;-46
2022/05/21 05:02:06;;;;;;;;;;;13.90;99.90;;;;;;5054609;28;37032;-49
2022/05/21 05:04:35;;;;;;;;;;;13.90;99.90;;;;;;5057576;28;37621;-49
2022/05/21 05:07:06;;;;;;;;;;;13.90;99.90;;;;;;5056537;28;40097;-46
2022/05/21 05:09:39;;;;;;;;;;;13.90;99.90;;;;;;5057375;28;36228;-45
2022/05/21 05:12:08;;;;;;;;;;;13.80;99.90;;;;;;5056499;28;37065;-47
2022/05/21 05:14:35;;;;;;;;;;;13.90;99.90;;;;;;5056902;28;37498;-46
2022/05/21 05:17:02;;;;;;;;;;;13.90;99.90;;;;;;5054963;28;38294;-44
2022/05/21 05:19:30;;;;;;;;;;;13.90;99.90;;;;;;5056850;28;38389;-44
2022/05/21 05:21:58;;;;;;;;;;;13.90;99.90;;;;;;5057016;28;36560;-47
2022/05/21 05:24:25;;;;;;;;;;;14.00;99.90;;;;;;5056463;28;37784;-46
2022/05/21 05:26:52;;;;;;;;;;;14.00;99.90;;;;;;5055811;28;36827;-46
2022/05/21 05:29:19;;;;;;;;;;;14.00;99.90;;;;;;5056131;28;38150;-47
2022/05/21 05:31:47;;;;;;;;;;;14.00;99.90;;;;;;5056209;28;34127;-47
2022/05/21 05:34:14;;;;;;;;;;;14.00;99.90;;;;;;5056447;28;38146;-47
2022/05/21 05:36:41;;;;;;;;;;;14.10;99.90;;;;;;5055462;28;37093;-47
2022/05/21 05:39:10;;;;;;;;;;;14.10;99.90;;;;;;5056257;28;38112;-48
2022/05/21 05:41:38;;;;;;;;;;;14.10;99.90;;;;;;5056330;28;39463;-47
2022/05/21 05:44:05;;;;;;;;;;;14.10;99.90;;;;;;5056527;28;37929;-47
2022/05/21 05:46:33;;;;;;;;;;;14.10;99.90;;;;;;5057159;28;38434;-46
2022/05/21 05:49:00;;;;;;;;;;;14.20;99.90;;;;;;5056255;28;36401;-47
2022/05/21 05:51:28;;;;;;;;;;;14.10;99.90;;;;;;5056702;28;36526;-46
2022/05/21 05:53:55;;;;;;;;;;;14.10;99.90;;;;;;5055661;28;38679;-45
2022/05/21 05:56:23;;;;;;;;;;;14.10;99.90;;;;;;5057003;28;38832;-45
2022/05/21 06:01:35;;;;;;;;;;;14.10;99.90;;;;;;5054605;28;36617;-46
2022/05/21 06:04:02;;;;;;;;;;;14.10;99.90;;;;;;5055273;28;37959;-49
2022/05/21 06:06:31;;;;;;;;;;;14.20;99.90;;;;;;5055116;28;39518;-44
2022/05/21 06:08:59;;;;;;;;;;;14.10;99.90;;;;;;5057437;28;38081;-47
2022/05/21 06:11:27;;;;;;;;;;;14.20;99.90;;;;;;5056390;28;35883;-45
2022/05/21 06:13:56;;;;;;;;;;;14.20;99.90;;;;;;5055928;28;36433;-47
2022/05/21 06:16:23;;;;;;;;;;;14.30;99.90;;;;;;5052669;28;39068;-49
2022/05/21 06:18:50;;;;;;;;;;;14.50;99.90;;;;;;5054967;28;36315;-44
2022/05/21 06:21:17;;;;;;;;;;;14.70;99.90;;;;;;5054957;28;37371;-44
2022/05/21 06:23:45;;;;;;;;;;;14.90;99.90;;;;;;5054450;28;36447;-45
2022/05/21 06:26:13;;;;;;;;;;;14.90;99.90;;;;;;5055424;28;40012;-45
2022/05/21 06:28:42;;;;;;;;;;;14.90;99.90;;;;;;5055466;28;37477;-46
2022/05/21 06:31:09;;;;;;;;;;;14.80;99.90;;;;;;5053486;28;37312;-45
2022/05/21 06:33:36;;;;;;;;;;;14.70;99.90;;;;;;5056366;28;37901;-47
2022/05/21 06:36:05;;;;;;;;;;;14.90;99.90;;;;;;5054695;28;41582;-45
2022/05/21 06:38:33;;;;;;;;;;;15.10;99.90;;;;;;5058292;28;36387;-47
2022/05/21 06:41:01;;;;;;;;;;;15.20;99.90;;;;;;5059908;28;36365;-44
2022/05/21 06:43:28;;;;;;;;;;;15.20;99.90;;;;;;5060363;28;40222;-48
2022/05/21 06:45:57;;;;;;;;;;;15.30;99.90;;;;;;5056543;28;37035;-45
2022/05/21 06:48:24;;;;;;;;;;;15.30;99.90;;;;;;5058787;28;36053;-49
2022/05/21 06:50:51;;;;;;;;;;;15.30;99.90;;;;;;5058928;28;36506;-45
2022/05/21 06:53:18;;;;;;;;;;;15.30;99.90;;;;;;5059766;28;37632;-46
2022/05/21 06:55:45;;;;;;;;;;;15.30;99.90;;;;;;5058071;28;38945;-46
2022/05/21 06:58:12;;;;;;;;;;;15.20;99.90;;;;;;5058902;28;39004;-44
2022/05/21 07:00:39;;;;;;;;;;;15.20;99.90;;;;;;5057396;28;36020;-48
2022/05/21 07:03:08;;;;;;;;;;;15.10;99.90;;;;;;5055311;28;38331;-48
2022/05/21 07:08:20;;;;;;;;;;;15.20;99.90;;;;;;5054516;28;40973;-48
2022/05/21 07:10:48;;;;;;;;;;;15.30;99.90;;;;;;5053908;28;36156;-48
2022/05/21 07:13:17;;;;;;;;;;;15.30;99.90;;;;;;5053281;28;37713;-49
2022/05/21 07:15:47;;;;;;;;;;;15.50;99.90;;;;;;5054063;28;38976;-47
2022/05/21 07:18:16;;;;;;;;;;;15.60;99.90;;;;;;5055944;28;37861;-48
2022/05/21 07:20:43;;;;;;;;;;;15.80;99.90;;;;;;5052803;28;34769;-46
2022/05/21 07:23:12;;;;;;;;;;;15.90;99.90;;;;;;5052695;28;38387;-48
2022/05/21 07:25:40;;;;;;;;;;;15.90;99.90;;;;;;5053479;28;40836;-47
2022/05/21 07:28:08;;;;;;;;;;;15.80;99.90;;;;;;5053345;28;38352;-50
2022/05/21 07:30:36;;;;;;;;;;;15.80;99.90;;;;;;5053536;28;36159;-49
2022/05/21 07:33:04;;;;;;;;;;;16.00;99.90;;;;;;5048386;28;37757;-49
2022/05/21 07:35:34;;;;;;;;;;;16.10;99.90;;;;;;5052923;28;37010;-46
2022/05/21 07:38:01;;;;;;;;;;;16.00;99.90;;;;;;5055394;28;37423;-48
2022/05/21 07:40:28;;;;;;;;;;;16.00;99.90;;;;;;5056682;28;35157;-50
2022/05/21 07:42:55;;;;;;;;;;;16.00;99.90;;;;;;5055387;28;38105;-47
2022/05/21 07:45:22;;;;;;;;;;;16.10;99.90;;;;;;5054544;28;37184;-49
2022/05/21 07:47:50;;;;;;;;;;;16.20;99.90;;;;;;5053941;28;37696;-48
2022/05/21 07:50:18;;;;;;;;;;;16.30;99.90;;;;;;5052287;28;36258;-47
2022/05/21 07:52:49;;;;;;;;;;;16.40;99.90;;;;;;5056005;28;37653;-48
2022/05/21 07:55:16;;;;;;;;;;;16.40;99.90;;;;;;5056336;28;38701;-58
2022/05/21 07:57:43;;;;;;;;;;;16.30;99.90;;;;;;5051914;28;39207;-58
2022/05/21 08:00:17;;;;;;;;;;;16.30;99.90;;;;;;5052106;28;36828;-58
2022/05/21 08:02:44;;;;;;;;;;;16.40;99.90;;;;;;5053303;28;38012;-58
2022/05/21 08:05:12;;;;;;;;;;;16.50;99.90;;;;;;5058569;28;38260;-58
2022/05/21 08:07:39;;;;;;;;;;;16.70;99.90;;;;;;5056888;28;37199;-58
2022/05/21 08:10:08;;;;;;;;;;;16.70;99.90;;;;;;5055097;28;39102;-58
2022/05/21 08:12:36;;;;;;;;;;;16.60;99.90;;;;;;5057778;28;36596;-58
2022/05/21 08:15:03;;;;;;;;;;;16.50;99.20;;;;;;5057337;28;38339;-58
2022/05/21 08:17:30;;;;;;;;;;;16.50;99.30;;;;;;5058243;28;37528;-58
2022/05/21 08:19:57;;;;;;;;;;;16.40;99.90;;;;;;5058582;28;35012;-58
2022/05/21 08:27:56;;;;;;;;;;;16.40;99.90;;;;;;5056611;28;40237;-58
2022/05/21 08:30:23;;;;;;;;;;;16.50;99.80;;;;;;5055752;28;35432;-58
2022/05/21 08:32:50;;;;;;;;;;;16.40;99.90;;;;;;5054056;28;36609;-59
2022/05/21 08:35:17;;;;;;;;;;;16.40;99.90;;;;;;5051167;28;39155;-58
2022/05/21 08:37:44;;;;;;;;;;;16.40;99.40;;;;;;5054533;28;37436;-58
2022/05/21 08:40:15;;;;;;;;;;;16.40;99.50;;;;;;5051420;28;36737;-58
2022/05/21 08:42:47;;;;;;;;;;;16.40;99.60;;;;;;5054569;28;39215;-58
2022/05/21 08:45:17;;;;;;;;;;;16.40;99.50;;;;;;5056500;28;39286;-58
2022/05/21 08:47:47;;;;;;;;;;;16.40;99.50;;;;;;5056305;28;37291;-58
2022/05/21 08:50:15;;;;;;;;;;;16.40;99.90;;;;;;5055633;28;36492;-58
2022/05/21 08:52:44;;;;;;;;;;;16.70;99.90;;;;;;5055957;28;38403;-58
2022/05/21 08:55:16;;;;;;;;;;;16.80;99.50;;;;;;5051201;28;38631;-58
2022/05/21 08:57:45;;;;;;;;;;;17.10;99.40;;;;;;5053690;28;37159;-58
2022/05/21 09:00:14;;;;;;;;;;;17.10;99.30;;;;;;5053886;28;36773;-58
2022/05/21 09:02:41;;;;;;;;;;;17.20;98.00;;;;;;5051189;28;36334;-58
2022/05/21 09:05:10;;;;;;;;;;;17.10;98.60;;;;;;5052884;28;40812;-57
2022/05/21 09:07:41;;;;;;;;;;;17.00;97.50;;;;;;5052180;28;38298;-58
2022/05/21 09:10:13;;;;;;;;;;;16.90;97.50;;;;;;5052093;28;39156;-58
2022/05/21 09:12:45;;;;;;;;;;;16.80;97.80;;;;;;5052911;28;38511;-58
2022/05/21 09:16:54;;;;;;;;;;;16.80;99.40;;;;;;5051660;28;38474;-58
2022/05/21 09:18:03;;;;;;;;;;;16.80;98.10;;;;;;5053142;28;38722;-59
2022/05/21 09:20:32;;;;;;;;;;;17.10;99.40;;;;;;5054689;28;36573;-58
2022/05/21 09:23:01;;;;;;;;;;;17.30;99.30;;;;;;5053165;28;36529;-58
2022/05/21 09:25:29;;;;;;;;;;;17.50;98.20;;;;;;5052107;28;39391;-58
2022/05/21 09:28:05;;;;;;;;;;;17.70;97.80;;;;;;5052754;28;38341;-58
2022/05/21 09:30:33;;;;;;;;;;;17.90;98.00;;;;;;5052143;28;38328;-57
2022/05/21 09:33:01;;;;;;;;;;;17.90;97.40;;;;;;5053396;28;38250;-58
2022/05/21 09:35:29;;;;;;;;;;;17.80;96.60;;;;;;5051489;28;38087;-58
2022/05/21 09:37:59;;;;;;;;;;;17.60;97.00;;;;;;5052113;28;37996;-58
2022/05/21 09:40:31;;;;;;;;;;;17.50;98.20;;;;;;5052911;28;36421;-58
2022/05/21 09:45:46;;;;;;;;;;;17.30;97.60;;;;;;5053599;28;40587;-58
2022/05/21 09:48:14;;;;;;;;;;;17.30;97.90;;;;;;5050537;28;37897;-58
2022/05/21 09:50:43;;;;;;;;;;;17.30;99.00;;;;;;5051839;28;37511;-58
2022/05/21 09:53:20;;;;;;;;;;;17.30;98.50;;;;;;5052474;28;38321;-57
2022/05/21 09:55:56;;;;;;;;;;;17.20;97.50;;;;;;5052439;28;38938;-58
2022/05/21 09:58:24;;;;;;;;;;;17.00;97.30;;;;;;5051282;28;36139;-58
2022/05/21 10:00:55;;;;;;;;;;;17.10;98.30;;;;;;5049550;28;36943;-58
2022/05/21 10:03:38;;;;;;;;;;;17.20;97.70;;;;;;5051142;28;38346;-58
2022/05/21 10:06:09;;;;;;;;;;;17.20;96.90;;;;;;5051977;28;38532;-58
2022/05/21 10:11:25;;;;;;;;;;;17.00;97.10;;;;;;5052747;28;37738;-58
2022/05/21 10:13:55;;;;;;;;;;;16.90;97.30;;;;;;5055782;28;38611;-58
2022/05/21 10:16:27;;;;;;;;;;;17.00;98.30;;;;;;5056032;28;37199;-58
2022/05/21 10:19:00;;;;;;;;;;;17.20;97.30;;;;;;5055964;28;36386;-58
2022/05/21 10:21:31;;;;;;;;;;;17.40;99.30;;;;;;5056283;28;38057;-57
2022/05/21 10:24:03;;;;;;;;;;;17.70;97.60;;;;;;5055964;28;40319;-58
2022/05/21 10:26:39;;;;;;;;;;;18.00;96.40;;;;;;5055216;28;39377;-58
2022/05/21 10:29:33;;;;;;;;;;;18.10;97.20;;;;;;5055905;28;39471;-58
2022/05/21 10:32:07;;;;;;;;;;;18.20;95.40;;;;;;5009850;28;36779;-59
2022/05/21 10:34:42;;;;;;;;;;;18.20;94.70;;;;;;5055829;28;39338;-59
2022/05/21 10:37:18;;;;;;;;;;;18.20;95.60;;;;;;5056109;28;38423;-58
2022/05/21 10:39:54;;;;;;;;;;;18.20;96.20;;;;;;5055821;28;37225;-59
2022/05/21 10:42:26;;;;;;;;;;;18.10;94.80;;;;;;5054749;28;37829;-58
2022/05/21 10:44:57;;;;;;;;;;;18.10;94.30;;;;;;5054930;28;37800;-59
2022/05/21 10:47:32;;;;;;;;;;;18.00;94.90;;;;;;5055452;28;39428;-58
2022/05/21 10:50:16;;;;;;;;;;;17.90;94.60;;;;;;5054973;28;37850;-58
2022/05/21 10:52:48;;;;;;;;;;;17.70;95.50;;;;;;5055239;28;36604;-58
2022/05/21 10:55:19;;;;;;;;;;;17.50;95.70;;;;;;5054780;28;37982;-58
2022/05/21 10:57:52;;;;;;;;;;;17.50;95.90;;;;;;5056062;28;38823;-58
2022/05/21 11:00:20;;;;;;;;;;;17.50;95.70;;;;;;5055124;28;38934;-58
2022/05/21 11:03:17;;;;;;;;;;;17.70;95.70;;;;;;5055014;28;36003;-59
2022/05/21 11:06:02;;;;;;;;;;;18.00;95.40;;;;;;5058869;28;40266;-58
2022/05/21 11:08:34;;;;;;;;;;;18.10;96.30;;;;;;5045351;28;39450;-58
2022/05/21 11:11:03;;;;;;;;;;;18.20;96.30;;;;;;5057652;28;39481;-59
2022/05/21 11:13:33;;;;;;;;;;;18.30;95.70;;;;;;5058549;28;35258;-59
2022/05/21 11:16:02;;;;;;;;;;;18.30;91.30;;;;;;5058205;28;38796;-58
2022/05/21 11:18:36;;;;;;;;;;;18.10;92.70;;;;;;5058386;28;37928;-58
2022/05/21 11:21:07;;;;;;;;;;;17.90;93.10;;;;;;5057797;28;40097;-59
2022/05/21 11:23:39;;;;;;;;;;;17.90;93.10;;;;;;5057487;27;38947;-59
2022/05/21 11:26:09;;;;;;;;;;;17.80;94.20;;;;;;5057279;28;37870;-59
2022/05/21 11:28:42;;;;;;;;;;;17.90;94.30;;;;;;5055651;28;38250;-59
2022/05/21 11:31:13;;;;;;;;;;;18.00;95.40;;;;;;5055225;28;37390;-59
2022/05/21 11:39:14;;;;;;;;;;;18.50;94.20;;;;;;5054429;28;39110;-58
2022/05/21 11:41:59;;;;;;;;;;;18.60;94.30;;;;;;5051994;28;37431;-58
2022/05/21 11:47:42;;;;;;;;;;;19.00;94.30;;;;;;5055393;28;40049;-58
2022/05/21 11:50:13;;;;;;;;;;;19.10;93.30;;;;;;5056104;28;38959;-58
2022/05/21 11:52:57;;;;;;;;;;;19.20;93.80;;;;;;5056403;28;37782;-58
2022/05/21 11:55:27;;;;;;;;;;;19.20;91.70;;;;;;5052743;28;35028;-59
2022/05/21 11:57:55;;;;;;;;;;;19.00;91.50;;;;;;5055848;28;38085;-59
2022/05/21 12:00:43;;;;;;;;;;;19.00;92.00;;;;;;5054496;28;38623;-59
2022/05/21 12:03:17;;;;;;;;;;;19.00;94.50;;;;;;5057349;28;40267;-59
2022/05/21 12:06:00;;;;;;;;;;;19.00;93.70;;;;;;5052529;28;37222;-59
2022/05/21 12:08:43;;;;;;;;;;;18.90;94.30;;;;;;5038969;28;36649;-59
2022/05/21 12:11:13;;;;;;;;;;;18.90;95.10;;;;;;5056200;28;37884;-59
2022/05/21 12:13:49;;;;;;;;;;;18.80;94.70;;;;;;5055725;28;37431;-58
2022/05/21 12:16:34;;;;;;;;;;;18.90;93.20;;;;;;5053559;28;36656;-59
2022/05/21 12:19:02;;;;;;;;;;;18.80;92.10;;;;;;5054980;28;38090;-58
2022/05/21 12:21:48;;;;;;;;;;;18.70;91.60;;;;;;5055114;28;38094;-59
2022/05/21 12:24:34;;;;;;;;;;;18.50;91.20;;;;;;5057271;28;36309;-59
2022/05/21 12:27:05;;;;;;;;;;;18.40;91.40;;;;;;5056762;28;36480;-59
2022/05/21 12:29:40;;;;;;;;;;;18.30;93.60;;;;;;5055445;28;38244;-58
2022/05/21 12:32:12;;;;;;;;;;;18.20;92.70;;;;;;5055458;28;38036;-59
2022/05/21 12:34:50;;;;;;;;;;;18.00;90.30;;;;;;5057136;28;36378;-59
2022/05/21 12:37:19;;;;;;;;;;;17.90;91.20;;;;;;5054063;28;35189;-59
2022/05/21 12:39:57;;;;;;;;;;;17.90;93.20;;;;;;5057088;28;39206;-59
2022/05/21 12:42:28;;;;;;;;;;;18.00;92.90;;;;;;5055656;28;38614;-58
2022/05/21 12:44:55;;;;;;;;;;;17.90;92.80;;;;;;5057159;28;37693;-59
2022/05/21 12:47:27;;;;;;;;;;;17.90;92.40;;;;;;5056029;28;36136;-58
2022/05/21 12:49:55;;;;;;;;;;;17.80;91.70;;;;;;5056054;28;36443;-59
2022/05/21 12:52:23;;;;;;;;;;;17.80;92.90;;;;;;5055350;28;38554;-58
2022/05/21 12:54:51;;;;;;;;;;;17.80;92.70;;;;;;5055869;28;37961;-59
2022/05/21 12:57:19;;;;;;;;;;;17.80;92.70;;;;;;5053856;28;36636;-59
2022/05/21 13:00:01;;;;;;;;;;;17.70;92.60;;;;;;5056134;28;37919;-58
2022/05/21 13:02:42;;;;;;;;;;;17.60;93.20;;;;;;5054587;28;43488;-59
2022/05/21 13:05:12;;;;;;;;;;;17.70;93.30;;;;;;5051651;28;36934;-59
2022/05/21 13:07:41;;;;;;;;;;;17.80;94.80;;;;;;5053531;28;37729;-58
2022/05/21 13:10:14;;;;;;;;;;;17.90;92.90;;;;;;5052335;28;38383;-58
2022/05/21 13:12:44;;;;;;;;;;;17.90;91.80;;;;;;5052297;28;39596;-58
2022/05/21 13:15:14;;;;;;;;;;;17.90;92.10;;;;;;5053207;28;37681;-59
2022/05/21 13:17:46;;;;;;;;;;;17.80;92.30;;;;;;5053637;28;35112;-58
2022/05/21 13:20:15;;;;;;;;;;;17.80;91.70;;;;;;5051669;28;37690;-58
2022/05/21 13:22:57;;;;;;;;;;;17.70;91.50;;;;;;5053792;28;38699;-58
2022/05/21 13:25:25;;;;;;;;;;;17.60;90.90;;;;;;5052927;28;37926;-59
2022/05/21 13:27:54;;;;;;;;;;;17.60;92.30;;;;;;5053478;28;36604;-58
2022/05/21 13:30:28;;;;;;;;;;;17.80;93.60;;;;;;5053073;28;36488;-58
2022/05/21 13:32:56;;;;;;;;;;;17.90;94.00;;;;;;5051832;28;38467;-58
2022/05/21 13:35:26;;;;;;;;;;;18.00;93.30;;;;;;5051696;28;38721;-58
2022/05/21 13:37:53;;;;;;;;;;;18.00;93.30;;;;;;5050338;28;35240;-59
2022/05/21 13:40:21;;;;;;;;;;;18.00;92.30;;;;;;5050715;28;38401;-58
2022/05/21 13:42:51;;;;;;;;;;;17.90;92.90;;;;;;5050985;28;38490;-58
2022/05/21 13:45:20;;;;;;;;;;;17.80;92.90;;;;;;5052450;28;39635;-59
2022/05/21 13:47:50;;;;;;;;;;;17.90;93.50;;;;;;5054446;28;35059;-58
2022/05/21 13:50:18;;;;;;;;;;;17.90;93.30;;;;;;5055586;28;39509;-58
2022/05/21 13:52:45;;;;;;;;;;;17.90;93.70;;;;;;5056886;28;39152;-58
2022/05/21 13:55:13;;;;;;;;;;;18.00;94.50;;;;;;5056835;28;36382;-58
2022/05/21 13:57:40;;;;;;;;;;;18.00;93.60;;;;;;5055340;28;37710;-58
2022/05/21 14:00:16;;;;;;;;;;;18.10;93.40;;;;;;5056092;28;37895;-58
2022/05/21 14:02:44;;;;;;;;;;;18.10;94.20;;;;;;5055328;28;39182;-58
2022/05/21 14:05:27;;;;;;;;;;;18.10;93.00;;;;;;5052923;28;39274;-58
2022/05/21 14:07:55;;;;;;;;;;;18.10;92.50;;;;;;5057065;28;37101;-58
2022/05/21 14:10:38;;;;;;;;;;;18.00;92.40;;;;;;5056821;28;38331;-59
2022/05/21 14:13:06;;;;;;;;;;;18.00;92.00;;;;;;5055617;28;36906;-59
2022/05/21 14:15:35;;;;;;;;;;;17.90;93.40;;;;;;5055435;28;37796;-59
2022/05/21 14:18:04;;;;;;;;;;;17.90;95.10;;;;;;5056448;28;36048;-59
2022/05/21 14:20:35;;;;;;;;;;;17.90;93.20;;;;;;5056567;28;36346;-59
2022/05/21 14:23:19;;;;;;;;;;;17.80;92.20;;;;;;5055758;28;37144;-59
2022/05/21 14:25:46;;;;;;;;;;;17.80;91.10;;;;;;5053986;28;36029;-58
2022/05/21 14:28:23;;;;;;;;;;;17.70;92.00;;;;;;5054507;28;36951;-59
2022/05/21 14:30:51;;;;;;;;;;;17.70;93.00;;;;;;5053840;28;37768;-59
2022/05/21 14:33:21;;;;;;;;;;;17.60;91.90;;;;;;5054336;28;37096;-58
2022/05/21 14:35:49;;;;;;;;;;;17.50;92.10;;;;;;5055639;28;37880;-59
2022/05/21 14:38:19;;;;;;;;;;;17.50;93.20;;;;;;5056572;28;35315;-59
2022/05/21 14:40:48;;;;;;;;;;;17.40;93.50;;;;;;5056400;28;36350;-58
2022/05/21 14:43:20;;;;;;;;;;;17.40;93.00;;;;;;5055822;28;37221;-59
2022/05/21 14:45:47;;;;;;;;;;;17.30;92.80;;;;;;5056322;28;39043;-59
2022/05/21 14:48:13;;;;;;;;;;;17.30;93.60;;;;;;5055463;28;35906;-58
2022/05/21 14:53:28;;;;;;;;;;;17.20;94.10;;;;;;5056139;28;39722;-58
2022/05/21 14:55:56;;;;;;;;;;;17.20;94.10;;;;;;5055109;28;36381;-59
2022/05/21 14:58:25;;;;;;;;;;;17.10;94.00;;;;;;5053524;28;36559;-58
2022/05/21 15:00:52;;;;;;;;;;;17.00;94.70;;;;;;5054797;28;36377;-58
2022/05/21 15:03:19;;;;;;;;;;;17.00;94.00;;;;;;5054429;28;39125;-58